Time;durP1;ratioP1;P1;durP2;ratioP2;P2;SDS_P1;SDS_P2;PMS_P1;PMS_P2;Temp;Humidity;BMP_temperature;BMP_pressure;BME280_temperature;BME280_humidity;BME280_pressure;Samples;Min_cycle;Max_cycle;Signal;HPM_P1;HPM_P2
2022/07/13 00:01:14;;;;;;;27.23;24.40;;;20.90;99.90;;;;;;5094247;28;20044;-71
2022/07/13 00:03:40;;;;;;;29.40;25.63;;;20.90;99.90;;;;;;5094882;28;20087;-71
2022/07/13 00:06:05;;;;;;;27.52;24.65;;;20.90;99.90;;;;;;5094709;28;20036;-70
2022/07/13 00:08:31;;;;;;;32.45;26.15;;;20.90;99.90;;;;;;5094320;28;20122;-71
2022/07/13 00:10:57;;;;;;;29.02;26.02;;;20.80;99.90;;;;;;5076653;28;20466;-71
2022/07/13 00:13:23;;;;;;;29.85;26.65;;;20.80;99.90;;;;;;5090460;28;20033;-71
2022/07/13 00:15:48;;;;;;;29.23;26.02;;;20.80;99.90;;;;;;5073796;28;20048;-71
2022/07/13 00:18:14;;;;;;;30.23;27.15;;;20.90;99.90;;;;;;5074319;28;20041;-69
2022/07/13 00:20:40;;;;;;;30.75;27.33;;;20.90;99.90;;;;;;5076033;28;20047;-73
2022/07/13 00:23:05;;;;;;;29.77;26.70;;;20.90;99.90;;;;;;5082317;28;20044;-71
2022/07/13 00:25:31;;;;;;;35.25;26.83;;;20.80;99.90;;;;;;5074102;28;20106;-70
2022/07/13 00:27:57;;;;;;;28.98;25.95;;;20.80;99.90;;;;;;5074194;28;20508;-70
2022/07/13 00:30:22;;;;;;;29.60;26.00;;;20.80;99.90;;;;;;5056588;28;20048;-71
2022/07/13 00:32:48;;;;;;;28.35;25.35;;;20.80;99.90;;;;;;5076327;28;20076;-72
2022/07/13 00:35:14;;;;;;;29.77;26.25;;;20.80;99.90;;;;;;5079656;28;20040;-71
2022/07/13 00:37:40;;;;;;;28.30;25.33;;;20.80;99.90;;;;;;5097889;28;20059;-71
2022/07/13 00:40:06;;;;;;;29.10;26.13;;;20.80;99.90;;;;;;5097832;28;20466;-71
2022/07/13 00:42:31;;;;;;;28.38;25.52;;;20.80;99.90;;;;;;5097900;28;20354;-72
2022/07/13 00:44:57;;;;;;;27.90;25.05;;;20.80;99.90;;;;;;5098091;28;20131;-71
2022/07/13 00:47:23;;;;;;;28.52;24.88;;;20.70;99.90;;;;;;5097915;28;20039;-70
2022/07/13 00:49:49;;;;;;;28.50;25.60;;;20.80;99.90;;;;;;5074455;28;20041;-70
2022/07/13 00:52:15;;;;;;;27.30;24.35;;;20.80;99.90;;;;;;5077565;28;20198;-72
2022/07/13 00:54:44;;;;;;;28.05;25.02;;;20.80;99.90;;;;;;5077306;28;20048;-73
2022/07/13 00:57:12;;;;;;;28.85;25.88;;;20.80;99.90;;;;;;5077196;28;20044;-70
2022/07/13 00:59:39;;;;;;;29.52;25.55;;;20.80;99.90;;;;;;5077076;28;20053;-71
2022/07/13 01:02:04;;;;;;;30.23;27.02;;;20.70;99.90;;;;;;5076656;28;20166;-70
2022/07/13 01:04:30;;;;;;;28.55;25.15;;;20.80;99.90;;;;;;5077251;28;20060;-72
2022/07/13 01:06:57;;;;;;;30.33;25.55;;;20.70;99.90;;;;;;5076428;28;20078;-72
2022/07/13 01:09:22;;;;;;;27.95;25.02;;;20.80;99.90;;;;;;5076586;28;20431;-72
2022/07/13 01:11:48;;;;;;;28.42;25.58;;;20.80;99.90;;;;;;5076883;28;20055;-71
2022/07/13 01:14:15;;;;;;;30.23;25.90;;;20.70;99.90;;;;;;5073870;28;20056;-70
2022/07/13 01:16:41;;;;;;;28.45;25.50;;;20.80;99.90;;;;;;5059239;28;20077;-72
2022/07/13 01:19:10;;;;;;;27.90;24.98;;;20.80;99.90;;;;;;5095682;28;20079;-73
2022/07/13 01:21:39;;;;;;;26.58;23.98;;;20.70;99.90;;;;;;5097076;28;20054;-72
2022/07/13 01:24:05;;;;;;;28.75;25.70;;;20.70;99.90;;;;;;5096882;28;20040;-70
2022/07/13 01:26:31;;;;;;;26.30;23.38;;;20.60;99.90;;;;;;5097351;28;20051;-69
2022/07/13 01:28:57;;;;;;;27.65;24.35;;;20.60;99.90;;;;;;5079123;28;20051;-69
2022/07/13 01:31:34;;;;;;;29.10;23.20;;;20.60;99.90;;;;;;5095874;28;20082;-73
2022/07/13 01:34:00;;;;;;;27.92;24.95;;;20.60;99.90;;;;;;5078211;28;20041;-70
2022/07/13 01:36:25;;;;;;;25.38;22.83;;;20.60;99.90;;;;;;5076543;28;20139;-72
2022/07/13 01:38:51;;;;;;;25.35;22.77;;;20.60;99.90;;;;;;5059017;28;20055;-70
2022/07/13 01:41:19;;;;;;;25.70;22.70;;;20.50;99.90;;;;;;5076431;28;20037;-69
2022/07/13 01:43:45;;;;;;;25.45;22.77;;;20.70;99.90;;;;;;5076442;28;20154;-70
2022/07/13 01:46:11;;;;;;;23.80;21.27;;;20.60;99.90;;;;;;5076009;28;20041;-70
2022/07/13 01:48:37;;;;;;;23.75;21.35;;;20.60;99.90;;;;;;5058612;28;20048;-72
2022/07/13 01:51:03;;;;;;;22.33;19.92;;;20.60;99.90;;;;;;5058614;28;20125;-70
2022/07/13 01:53:28;;;;;;;21.88;19.52;;;20.60;99.90;;;;;;5058352;28;20040;-71
2022/07/13 01:55:54;;;;;;;24.52;19.42;;;20.60;99.90;;;;;;5076150;28;20424;-71
2022/07/13 01:58:19;;;;;;;23.08;18.02;;;20.60;99.90;;;;;;5076026;28;20041;-71
2022/07/13 02:00:45;;;;;;;19.63;17.58;;;20.70;99.90;;;;;;5075645;28;20044;-71
2022/07/13 02:03:11;;;;;;;26.13;19.67;;;20.60;99.90;;;;;;5076461;28;20044;-72
2022/07/13 02:05:36;;;;;;;20.10;17.92;;;20.60;99.90;;;;;;5076000;28;20106;-70
2022/07/13 02:08:02;;;;;;;19.83;17.38;;;20.60;99.90;;;;;;5075926;28;20074;-72
2022/07/13 02:10:37;;;;;;;21.77;17.67;;;20.70;99.90;;;;;;5075903;28;20052;-71
2022/07/13 02:13:05;;;;;;;21.25;17.23;;;20.60;99.90;;;;;;5079696;28;20071;-70
2022/07/13 02:15:30;;;;;;;19.73;17.63;;;20.60;99.90;;;;;;5096384;28;20052;-72
2022/07/13 02:17:56;;;;;;;18.13;15.57;;;20.60;99.90;;;;;;5096043;28;20446;-70
2022/07/13 02:20:21;;;;;;;17.33;15.45;;;20.60;99.90;;;;;;5096332;28;20087;-70
2022/07/13 02:22:47;;;;;;;17.88;15.77;;;20.60;99.90;;;;;;5095974;28;20066;-70
2022/07/13 02:25:13;;;;;;;18.65;15.25;;;20.70;99.90;;;;;;5095788;28;20454;-71
2022/07/13 02:27:43;;;;;;;19.40;15.57;;;20.70;99.90;;;;;;5088189;28;20053;-72
2022/07/13 02:30:11;;;;;;;15.82;14.10;;;20.70;99.90;;;;;;5075114;28;20462;-69
2022/07/13 02:32:36;;;;;;;17.70;14.95;;;20.70;99.90;;;;;;5075554;28;20056;-72
2022/07/13 02:35:02;;;;;;;16.60;14.75;;;20.80;99.90;;;;;;5075257;28;20128;-71
2022/07/13 02:37:28;;;;;;;17.80;15.90;;;20.70;99.90;;;;;;5075533;28;20044;-70
2022/07/13 02:39:56;;;;;;;17.98;14.63;;;20.80;99.90;;;;;;5075292;28;20063;-72
2022/07/13 02:42:22;;;;;;;21.15;14.45;;;20.70;99.90;;;;;;5074953;28;20044;-71
2022/07/13 02:44:49;;;;;;;15.65;14.05;;;20.70;99.90;;;;;;5075453;28;20055;-71
2022/07/13 02:47:14;;;;;;;16.98;14.50;;;20.70;99.90;;;;;;5075328;28;20033;-71
2022/07/13 02:49:40;;;;;;;16.73;14.93;;;20.70;99.90;;;;;;5057353;28;20411;-70
2022/07/13 02:52:06;;;;;;;18.58;15.43;;;20.80;99.90;;;;;;5075114;28;20051;-72
2022/07/13 02:54:31;;;;;;;16.65;14.88;;;20.70;99.90;;;;;;5074675;28;20223;-70
2022/07/13 02:56:57;;;;;;;17.65;14.68;;;20.70;99.90;;;;;;5074771;28;20358;-71
2022/07/13 02:59:23;;;;;;;16.30;14.57;;;20.70;99.90;;;;;;5074838;28;20420;-71
2022/07/13 03:01:48;;;;;;;17.60;15.68;;;20.70;99.90;;;;;;5074444;28;20165;-70
2022/07/13 03:04:14;;;;;;;15.27;13.73;;;20.70;99.90;;;;;;5074677;28;20048;-72
2022/07/13 03:06:39;;;;;;;15.85;14.15;;;20.70;99.90;;;;;;5074949;28;20086;-72
2022/07/13 03:09:05;;;;;;;18.20;15.38;;;20.70;99.90;;;;;;5074079;28;20041;-70
2022/07/13 03:11:31;;;;;;;16.48;14.77;;;20.70;99.90;;;;;;5095261;28;20053;-72
2022/07/13 03:13:56;;;;;;;15.68;13.65;;;20.60;99.90;;;;;;5095342;28;20079;-72
2022/07/13 03:16:22;;;;;;;16.40;14.70;;;20.70;99.90;;;;;;5095222;28;20036;-70
2022/07/13 03:18:47;;;;;;;17.83;14.68;;;20.60;99.90;;;;;;5095253;28;20044;-70
2022/07/13 03:21:13;;;;;;;16.48;14.77;;;20.60;99.90;;;;;;5094967;28;20040;-70
2022/07/13 03:23:39;;;;;;;16.70;13.90;;;20.60;99.90;;;;;;5086811;28;20051;-71
2022/07/13 03:26:05;;;;;;;15.43;13.93;;;20.60;99.90;;;;;;5074853;28;20045;-70
2022/07/13 03:28:31;;;;;;;15.43;13.60;;;20.60;99.90;;;;;;5074747;28;20467;-70
2022/07/13 03:30:57;;;;;;;15.27;13.68;;;20.50;99.90;;;;;;5040502;28;20048;-70
2022/07/13 03:33:22;;;;;;;17.02;13.50;;;20.50;99.90;;;;;;5074898;28;20469;-72
2022/07/13 03:35:48;;;;;;;16.30;13.98;;;20.60;99.90;;;;;;5074816;28;20055;-72
2022/07/13 03:38:15;;;;;;;17.25;15.25;;;20.50;99.90;;;;;;5080163;28;20052;-72
2022/07/13 03:40:40;;;;;;;17.00;15.20;;;20.50;99.90;;;;;;5094907;28;20052;-70
2022/07/13 03:43:06;;;;;;;18.75;15.23;;;20.40;99.90;;;;;;5095066;28;20043;-72
2022/07/13 03:45:32;;;;;;;17.85;15.18;;;20.40;99.90;;;;;;5042572;28;20063;-72
2022/07/13 03:47:57;;;;;;;17.50;15.70;;;20.40;99.90;;;;;;5094936;28;20126;-70
2022/07/13 03:50:23;;;;;;;19.00;16.30;;;20.30;99.90;;;;;;5094782;28;20105;-71
2022/07/13 03:52:48;;;;;;;15.38;13.77;;;20.30;99.90;;;;;;5078889;28;20048;-71
2022/07/13 03:55:14;;;;;;;16.75;14.95;;;20.20;99.90;;;;;;5074732;28;20119;-71
2022/07/13 03:57:40;;;;;;;18.27;15.80;;;20.20;99.90;;;;;;5074842;28;20508;-70
2022/07/13 04:00:08;;;;;;;17.40;15.32;;;20.20;99.90;;;;;;5059925;28;20059;-69
2022/07/13 04:02:33;;;;;;;20.98;15.30;;;20.20;99.90;;;;;;5080677;28;20466;-70
2022/07/13 04:04:59;;;;;;;17.58;15.50;;;20.10;99.90;;;;;;5080222;28;20060;-69
2022/07/13 04:07:24;;;;;;;17.30;15.40;;;20.10;99.90;;;;;;5081237;28;20048;-70
2022/07/13 04:09:50;;;;;;;20.92;15.95;;;20.10;99.90;;;;;;5083651;28;20048;-71
2022/07/13 04:12:22;;;;;;;18.25;14.82;;;20.20;99.90;;;;;;5083596;28;20049;-70
2022/07/13 04:14:49;;;;;;;16.83;15.02;;;20.10;99.90;;;;;;5083242;28;20529;-70
2022/07/13 04:17:14;;;;;;;17.02;15.20;;;20.20;99.90;;;;;;5082584;28;20044;-71
2022/07/13 04:19:40;;;;;;;16.73;14.85;;;20.10;99.90;;;;;;5060589;28;20048;-71
2022/07/13 04:22:05;;;;;;;17.02;14.23;;;20.20;99.90;;;;;;5092984;28;20044;-70
2022/07/13 04:24:31;;;;;;;17.35;15.32;;;20.20;99.90;;;;;;5098215;28;20335;-70
2022/07/13 04:26:56;;;;;;;14.93;13.30;;;20.10;99.90;;;;;;5098356;28;20044;-72
2022/07/13 04:29:22;;;;;;;17.35;15.23;;;20.00;99.90;;;;;;5098111;28;20113;-69
2022/07/13 04:31:48;;;;;;;17.52;13.70;;;20.10;99.90;;;;;;5097965;28;20054;-70
2022/07/13 04:34:13;;;;;;;17.73;13.25;;;20.10;99.90;;;;;;5097964;28;20044;-71
2022/07/13 04:36:42;;;;;;;20.65;14.70;;;20.10;99.90;;;;;;5081309;28;20439;-70
2022/07/13 04:39:08;;;;;;;16.75;12.15;;;20.20;99.90;;;;;;5077589;28;20182;-71
2022/07/13 04:41:33;;;;;;;14.27;11.60;;;20.10;99.90;;;;;;5077792;28;20131;-72
2022/07/13 04:43:59;;;;;;;13.93;11.20;;;20.20;99.90;;;;;;5077452;28;20323;-73
2022/07/13 04:46:25;;;;;;;17.92;11.07;;;20.20;99.90;;;;;;5077406;28;20058;-71
2022/07/13 04:48:51;;;;;;;16.00;9.95;;;20.10;99.90;;;;;;5077197;28;20052;-70
2022/07/13 04:51:16;;;;;;;13.82;10.95;;;20.20;99.90;;;;;;5076595;28;20037;-69
2022/07/13 04:53:42;;;;;;;12.23;10.80;;;20.20;99.90;;;;;;5077507;28;20048;-71
2022/07/13 04:56:07;;;;;;;11.65;10.15;;;20.20;99.90;;;;;;5077132;28;20471;-71
2022/07/13 04:58:33;;;;;;;14.93;10.73;;;20.20;99.90;;;;;;5087399;28;20047;-73
2022/07/13 05:01:00;;;;;;;15.48;9.25;;;20.20;99.90;;;;;;5088731;28;20356;-70
2022/07/13 05:03:27;;;;;;;12.10;9.05;;;20.20;99.90;;;;;;5076783;28;20051;-71
2022/07/13 05:05:53;;;;;;;14.65;9.13;;;20.10;99.90;;;;;;5077327;28;20044;-70
2022/07/13 05:08:19;;;;;;;15.65;9.73;;;20.00;99.90;;;;;;5077269;28;20127;-71
2022/07/13 05:10:46;;;;;;;10.35;8.60;;;20.00;99.90;;;;;;5077198;28;20203;-71
2022/07/13 05:13:11;;;;;;;11.25;9.32;;;20.10;99.90;;;;;;5076355;28;20037;-70
2022/07/13 05:15:37;;;;;;;11.63;9.63;;;20.00;99.90;;;;;;5076477;28;20425;-70
2022/07/13 05:18:02;;;;;;;11.38;9.38;;;20.00;99.90;;;;;;5076212;28;20045;-71
2022/07/13 05:20:28;;;;;;;14.48;9.95;;;20.10;99.90;;;;;;5076909;28;20040;-70
2022/07/13 05:22:54;;;;;;;14.00;9.07;;;20.00;99.90;;;;;;5077016;28;20128;-71
2022/07/13 05:25:20;;;;;;;14.77;9.38;;;20.00;99.90;;;;;;5076770;28;20044;-71
2022/07/13 05:27:46;;;;;;;16.55;9.98;;;20.00;99.90;;;;;;5076720;28;20045;-70
2022/07/13 05:30:12;;;;;;;14.05;9.80;;;20.10;99.90;;;;;;5076202;28;20048;-72
2022/07/13 05:32:37;;;;;;;13.93;9.77;;;20.00;99.90;;;;;;5087964;28;20043;-69
2022/07/13 05:35:03;;;;;;;16.30;10.43;;;19.90;99.90;;;;;;5076631;28;20447;-69
2022/07/13 05:37:29;;;;;;;13.77;9.88;;;20.00;99.90;;;;;;5058889;28;20044;-70
2022/07/13 05:39:54;;;;;;;15.43;10.73;;;19.90;99.90;;;;;;5076572;28;20066;-69
2022/07/13 05:42:20;;;;;;;15.27;11.18;;;19.70;99.90;;;;;;5076517;28;20063;-73
2022/07/13 05:44:45;;;;;;;18.85;11.30;;;19.90;99.90;;;;;;5075967;28;20114;-70
2022/07/13 05:47:12;;;;;;;17.27;11.70;;;19.90;99.90;;;;;;5075737;28;20094;-72
2022/07/13 05:49:38;;;;;;;17.25;10.93;;;19.80;99.90;;;;;;5075990;28;20127;-73
2022/07/13 05:52:04;;;;;;;13.63;11.07;;;19.90;99.90;;;;;;5076219;28;20405;-74
2022/07/13 05:54:30;;;;;;;16.85;11.85;;;19.90;99.90;;;;;;5076582;28;20040;-76
2022/07/13 05:56:56;;;;;;;16.05;11.35;;;19.90;99.90;;;;;;5076183;28;20516;-74
2022/07/13 05:59:22;;;;;;;21.05;12.00;;;19.90;99.90;;;;;;5075667;28;20056;-73
2022/07/13 06:01:47;;;;;;;16.85;10.30;;;19.80;99.90;;;;;;5075493;28;20037;-74
2022/07/13 06:04:13;;;;;;;17.45;11.50;;;19.80;99.90;;;;;;5075671;28;20082;-74
2022/07/13 06:06:39;;;;;;;16.42;11.00;;;19.80;99.90;;;;;;5074623;28;20045;-74
2022/07/13 06:09:04;;;;;;;16.58;11.02;;;19.90;99.90;;;;;;5076036;28;20079;-73
2022/07/13 06:11:30;;;;;;;17.73;11.55;;;19.90;99.90;;;;;;5075957;28;20070;-73
2022/07/13 06:13:56;;;;;;;21.73;12.73;;;20.00;99.90;;;;;;5075397;28;20048;-75
2022/07/13 06:16:21;;;;;;;20.08;12.93;;;20.00;99.90;;;;;;5075547;28;20051;-74
2022/07/13 06:18:47;;;;;;;20.88;12.48;;;20.00;99.90;;;;;;5090007;28;20044;-74
2022/07/13 06:21:12;;;;;;;16.38;11.93;;;20.00;99.90;;;;;;5096051;28;20036;-72
2022/07/13 06:23:38;;;;;;;17.52;12.38;;;20.10;99.90;;;;;;5095931;28;20046;-74
2022/07/13 06:26:03;;;;;;;19.92;13.43;;;20.10;99.90;;;;;;5095894;28;20080;-74
2022/07/13 06:28:29;;;;;;;21.65;13.98;;;20.10;99.90;;;;;;5095944;28;20057;-73
2022/07/13 06:30:55;;;;;;;22.05;13.88;;;20.20;99.90;;;;;;5091802;28;20048;-73
2022/07/13 06:33:20;;;;;;;18.48;13.32;;;20.20;99.90;;;;;;5081559;28;20044;-73
2022/07/13 06:35:46;;;;;;;19.35;12.77;;;20.30;99.90;;;;;;5057775;28;20049;-75
2022/07/13 06:38:12;;;;;;;19.88;12.25;;;20.40;99.90;;;;;;5075667;28;20119;-74
2022/07/13 06:40:37;;;;;;;17.85;11.45;;;20.30;99.90;;;;;;5075713;28;20060;-73
2022/07/13 06:43:03;;;;;;;19.15;13.43;;;20.50;99.90;;;;;;5075402;28;20040;-74
2022/07/13 06:45:29;;;;;;;18.90;12.52;;;20.40;99.90;;;;;;5075382;28;20101;-75
2022/07/13 06:47:54;;;;;;;20.88;13.20;;;20.50;99.90;;;;;;5064525;28;20178;-75
2022/07/13 06:50:20;;;;;;;17.92;12.75;;;20.50;99.90;;;;;;5090779;28;20101;-73
2022/07/13 06:52:47;;;;;;;23.17;13.98;;;20.70;99.90;;;;;;5095619;28;20143;-74
2022/07/13 06:55:13;;;;;;;16.80;13.73;;;20.70;99.90;;;;;;5095695;28;20446;-74
2022/07/13 06:57:39;;;;;;;21.38;12.38;;;20.70;99.90;;;;;;5095348;28;20362;-75
2022/07/13 07:00:06;;;;;;;17.17;12.57;;;20.80;99.90;;;;;;5093564;28;20039;-73
2022/07/13 07:02:32;;;;;;;18.30;14.35;;;20.90;99.90;;;;;;5057453;28;20044;-74
2022/07/13 07:04:58;;;;;;;19.98;13.50;;;21.00;99.90;;;;;;5075144;28;20044;-76
2022/07/13 07:07:23;;;;;;;21.33;11.98;;;21.10;99.90;;;;;;5075031;28;20045;-73
2022/07/13 07:09:50;;;;;;;19.08;12.85;;;21.00;99.90;;;;;;5074621;28;20067;-74
2022/07/13 07:12:16;;;;;;;16.70;10.40;;;21.10;99.90;;;;;;5074963;28;20076;-74
2022/07/13 07:14:42;;;;;;;19.17;11.95;;;21.20;99.90;;;;;;5057382;28;20102;-72
2022/07/13 07:17:08;;;;;;;15.45;8.63;;;21.30;99.90;;;;;;5074738;28;20047;-75
2022/07/13 07:19:33;;;;;;;16.15;9.63;;;21.20;99.90;;;;;;5074888;28;20041;-73
2022/07/13 07:21:59;;;;;;;15.32;9.60;;;21.30;99.90;;;;;;5075288;28;20033;-73
2022/07/13 07:24:24;;;;;;;9.70;7.97;;;21.50;99.90;;;;;;5074502;28;20106;-76
2022/07/13 07:26:53;;;;;;;11.18;8.20;;;21.50;99.90;;;;;;5074885;28;20506;-73
2022/07/13 07:29:18;;;;;;;10.93;7.25;;;21.60;99.90;;;;;;5074907;28;20102;-76
2022/07/13 07:31:44;;;;;;;12.52;6.38;;;21.60;99.90;;;;;;5074661;28;20075;-73
2022/07/13 07:34:10;;;;;;;8.50;6.55;;;21.80;99.90;;;;;;5079738;28;20044;-72
2022/07/13 07:36:35;;;;;;;10.73;6.03;;;21.80;99.90;;;;;;5085898;28;20044;-72
2022/07/13 07:39:01;;;;;;;12.95;6.95;;;21.80;99.90;;;;;;5085956;28;20047;-71
2022/07/13 07:41:26;;;;;;;12.65;6.15;;;21.90;99.90;;;;;;5087696;28;20036;-72
2022/07/13 07:43:52;;;;;;;11.75;5.63;;;22.00;99.90;;;;;;5089645;28;20028;-72
2022/07/13 07:46:18;;;;;;;8.77;6.32;;;22.00;99.90;;;;;;5089032;28;20047;-72
2022/07/13 07:48:43;;;;;;;12.05;6.32;;;22.10;99.90;;;;;;5086666;28;20056;-76
2022/07/13 07:51:09;;;;;;;9.77;5.85;;;22.10;99.90;;;;;;5079365;28;20036;-73
2022/07/13 07:53:35;;;;;;;9.05;5.55;;;22.20;99.90;;;;;;5078616;28;20366;-75
2022/07/13 07:56:01;;;;;;;6.97;5.72;;;22.30;99.90;;;;;;5078531;28;20056;-77
2022/07/13 07:58:27;;;;;;;10.52;5.80;;;22.40;99.90;;;;;;5078494;28;20048;-75
2022/07/13 08:00:52;;;;;;;11.20;6.05;;;22.40;99.90;;;;;;5078656;28;20051;-73
2022/07/13 08:03:18;;;;;;;6.53;4.88;;;22.50;99.90;;;;;;5078522;28;20036;-75
2022/07/13 08:05:48;;;;;;;8.45;5.80;;;22.50;99.90;;;;;;5060316;28;20182;-76
2022/07/13 08:08:14;;;;;;;11.02;5.75;;;22.50;99.90;;;;;;5077902;28;20127;-75
2022/07/13 08:10:39;;;;;;;7.75;5.30;;;22.50;99.90;;;;;;5078197;28;20096;-75
2022/07/13 08:13:05;;;;;;;7.13;5.18;;;22.50;99.90;;;;;;5060670;28;20040;-73
2022/07/13 08:15:31;;;;;;;8.82;5.70;;;22.50;99.90;;;;;;5078109;28;20088;-74
2022/07/13 08:17:57;;;;;;;9.25;5.95;;;22.60;99.90;;;;;;5078282;28;20350;-76
2022/07/13 08:20:23;;;;;;;8.73;5.10;;;22.60;99.90;;;;;;5077892;28;20040;-75
2022/07/13 08:22:50;;;;;;;9.98;5.00;;;22.60;99.90;;;;;;5078248;28;20325;-76
2022/07/13 08:25:16;;;;;;;6.28;4.78;;;22.50;99.90;;;;;;5060124;28;20037;-75
2022/07/13 08:27:41;;;;;;;7.22;5.13;;;22.70;99.90;;;;;;5077523;28;20074;-73
2022/07/13 08:30:07;;;;;;;6.57;4.90;;;22.80;99.90;;;;;;5060752;28;20052;-75
2022/07/13 08:32:33;;;;;;;7.70;4.50;;;22.90;99.90;;;;;;5077863;28;20048;-74
2022/07/13 08:40:27;;;;;;;11.02;6.72;;;23.10;99.90;;;;;;5060207;28;20048;-74
2022/07/13 08:42:53;;;;;;;7.60;5.80;;;23.20;99.90;;;;;;5077754;28;20343;-74
2022/07/13 08:45:19;;;;;;;11.10;5.93;;;23.20;99.90;;;;;;5077501;28;20103;-74
2022/07/13 08:47:46;;;;;;;7.82;4.90;;;23.30;99.90;;;;;;5077144;28;20037;-77
2022/07/13 08:50:12;;;;;;;10.18;4.90;;;23.40;99.90;;;;;;5077575;28;20075;-75
2022/07/13 08:52:40;;;;;;;8.35;4.57;;;23.40;99.90;;;;;;5076645;28;20052;-75
2022/07/13 08:55:06;;;;;;;12.25;5.97;;;23.50;99.90;;;;;;5076961;28;20071;-77
2022/07/13 08:57:39;;;;;;;6.00;5.28;;;23.50;99.90;;;;;;5077350;28;20040;-76
2022/07/13 09:00:11;;;;;;;8.60;6.03;;;23.50;99.90;;;;;;5077426;28;20040;-75
2022/07/13 09:02:38;;;;;;;6.05;5.45;;;23.30;99.90;;;;;;5076484;28;20044;-77
2022/07/13 09:05:05;;;;;;;11.32;5.40;;;23.30;99.90;;;;;;5089477;28;20048;-74
2022/07/13 09:07:34;;;;;;;18.67;5.72;;;23.30;99.90;;;;;;5097388;28;20071;-74
2022/07/13 09:10:04;;;;;;;8.48;5.60;;;23.40;99.90;;;;;;5097581;28;20052;-74
2022/07/13 09:12:30;;;;;;;11.20;4.90;;;23.30;99.90;;;;;;5097412;28;20052;-74
2022/07/13 09:14:58;;;;;;;9.27;5.93;;;23.40;99.90;;;;;;5097332;28;20378;-75
2022/07/13 09:17:29;;;;;;;8.15;5.80;;;23.40;99.90;;;;;;5084422;28;20470;-76
2022/07/13 09:19:54;;;;;;;10.30;5.80;;;23.40;99.90;;;;;;5076830;28;20071;-75
2022/07/13 09:22:20;;;;;;;11.55;6.20;;;23.40;99.90;;;;;;5076410;28;20037;-75
2022/07/13 09:24:47;;;;;;;11.82;5.95;;;23.30;99.90;;;;;;5076901;28;20071;-74
2022/07/13 09:27:15;;;;;;;9.00;5.68;;;23.40;99.90;;;;;;5076768;28;20087;-74
2022/07/13 09:29:41;;;;;;;8.43;5.30;;;23.40;99.90;;;;;;5076750;28;20462;-76
2022/07/13 09:32:09;;;;;;;6.97;4.68;;;23.50;99.90;;;;;;5076556;28;20121;-75
2022/07/13 09:34:53;;;;;;;7.43;4.80;;;23.40;99.90;;;;;;5076703;28;20040;-74
2022/07/13 09:37:24;;;;;;;5.57;4.13;;;23.50;99.90;;;;;;5076188;28;20128;-74
2022/07/13 09:39:56;;;;;;;7.20;4.32;;;23.50;99.90;;;;;;5076423;28;20040;-76
2022/07/13 09:46:08;;;;;;;6.43;3.97;;;23.60;99.90;;;;;;5076523;28;20052;-76
2022/07/13 09:48:22;;;;;;;5.80;4.38;;;23.60;99.90;;;;;;5076142;28;20137;-74
2022/07/13 09:50:53;;;;;;;8.80;4.20;;;23.60;99.90;;;;;;5075887;28;20064;-75
2022/07/13 09:53:36;;;;;;;5.45;4.22;;;23.60;99.90;;;;;;5076118;28;20461;-76
2022/07/13 09:56:03;;;;;;;8.15;4.32;;;23.60;99.90;;;;;;5076292;28;20084;-75
2022/07/13 09:58:37;;;;;;;4.93;3.50;;;23.70;99.90;;;;;;5076050;28;20032;-75
2022/07/13 10:01:03;;;;;;;7.25;4.65;;;23.80;99.90;;;;;;5075979;28;20052;-74
2022/07/13 10:03:30;;;;;;;7.47;4.15;;;23.70;99.90;;;;;;5075677;28;20045;-73
2022/07/13 10:05:57;;;;;;;5.50;4.25;;;24.00;99.90;;;;;;5041743;28;20044;-75
2022/07/13 10:08:23;;;;;;;6.20;3.67;;;24.00;99.90;;;;;;5075799;28;20059;-76
2022/07/13 10:10:50;;;;;;;7.15;4.18;;;24.00;99.90;;;;;;5076070;28;20382;-75
2022/07/13 10:13:17;;;;;;;6.72;3.97;;;24.00;99.90;;;;;;5092016;28;20055;-75
2022/07/13 10:15:44;;;;;;;7.35;3.88;;;24.00;99.90;;;;;;5096009;28;20135;-74
2022/07/13 10:18:13;;;;;;;5.50;3.90;;;24.20;99.90;;;;;;5095732;28;20496;-75
2022/07/13 10:20:45;;;;;;;3.63;3.30;;;24.30;99.90;;;;;;5096069;28;20044;-75
2022/07/13 10:23:11;;;;;;;8.40;3.70;;;24.40;99.90;;;;;;5095028;28;20043;-76
2022/07/13 10:25:44;;;;;;;3.45;2.80;;;24.40;99.90;;;;;;5077992;28;20036;-75
2022/07/13 10:28:12;;;;;;;7.03;3.30;;;24.40;99.90;;;;;;5095798;28;20040;-77
2022/07/13 10:30:38;;;;;;;5.68;3.30;;;24.40;99.90;;;;;;5078242;28;20059;-75
2022/07/13 10:33:15;;;;;;;4.53;2.88;;;24.50;99.90;;;;;;5095750;28;20040;-74
2022/07/13 10:35:49;;;;;;;6.03;3.65;;;24.50;99.90;;;;;;5095878;28;20430;-74
2022/07/13 10:38:27;;;;;;;7.40;4.13;;;24.40;99.90;;;;;;5086874;28;20051;-76
2022/07/13 10:41:17;;;;;;;4.80;4.32;;;24.20;99.90;;;;;;5088595;28;20073;-75
2022/07/13 10:43:52;;;;;;;10.65;4.63;;;24.10;99.90;;;;;;5087980;28;20049;-74
2022/07/13 10:46:48;;;;;;;6.60;3.80;;;24.30;99.90;;;;;;5075356;28;20123;-76
2022/07/13 10:49:47;;;;;;;5.28;3.50;;;23.90;99.90;;;;;;5057801;28;20063;-76
2022/07/13 10:52:22;;;;;;;5.82;3.35;;;24.00;99.90;;;;;;5031106;28;20454;-75
2022/07/13 10:55:11;;;;;;;7.07;3.92;;;24.20;99.90;;;;;;5075153;28;20051;-77
2022/07/13 10:57:38;;;;;;;6.95;3.90;;;24.20;99.90;;;;;;5074877;28;20382;-78
2022/07/13 11:00:28;;;;;;;5.78;3.80;;;24.40;99.90;;;;;;5078965;28;20058;-74
2022/07/13 11:03:07;;;;;;;8.00;4.03;;;24.70;99.90;;;;;;5095310;28;20044;-76
2022/07/13 11:05:36;;;;;;;9.40;4.65;;;24.80;99.90;;;;;;5094638;28;20044;-77
2022/07/13 11:08:13;;;;;;;5.05;3.83;;;24.80;99.90;;;;;;5094914;28;20052;-76
2022/07/13 11:10:38;;;;;;;6.25;3.85;;;24.10;99.90;;;;;;5095315;28;20131;-74
2022/07/13 11:13:13;;;;;;;12.02;4.93;;;24.20;99.90;;;;;;5095823;28;20417;-75
2022/07/13 11:15:54;;;;;;;8.20;4.78;;;24.40;99.90;;;;;;5095642;28;20109;-75
2022/07/13 11:18:22;;;;;;;8.40;4.50;;;24.40;99.90;;;;;;5095982;28;20032;-75
2022/07/13 11:21:01;;;;;;;8.00;4.30;;;24.20;99.90;;;;;;5088919;28;20036;-76
2022/07/13 11:26:44;;;;;;;6.18;4.63;;;24.30;99.90;;;;;;5075267;28;20506;-75
2022/07/13 11:29:27;;;;;;;8.43;4.15;;;24.40;99.90;;;;;;5074840;28;20127;-75
2022/07/13 11:32:04;;;;;;;12.57;4.25;;;24.50;99.90;;;;;;5074958;28;20126;-76
2022/07/13 11:34:30;;;;;;;10.68;5.65;;;24.60;99.90;;;;;;5074346;28;20051;-75
2022/07/13 11:36:59;;;;;;;6.45;4.43;;;24.40;99.90;;;;;;5074237;28;20036;-75
2022/07/13 11:39:29;;;;;;;8.48;4.22;;;24.70;99.90;;;;;;5074630;28;20117;-75
2022/07/13 11:41:58;;;;;;;5.43;4.22;;;25.00;99.90;;;;;;5074714;28;20104;-77
2022/07/13 11:44:31;;;;;;;8.15;4.55;;;25.10;99.90;;;;;;5074642;28;20133;-77
2022/07/13 11:47:02;;;;;;;7.15;4.38;;;25.10;99.90;;;;;;5074684;28;20059;-76
2022/07/13 11:49:28;;;;;;;9.35;4.78;;;25.40;99.90;;;;;;5074112;28;20116;-76
2022/07/13 11:51:54;;;;;;;7.13;4.38;;;25.10;99.90;;;;;;5074820;28;20190;-74
2022/07/13 11:54:21;;;;;;;10.32;4.43;;;24.80;99.90;;;;;;5074431;28;20036;-75
2022/07/13 11:56:56;;;;;;;8.95;4.50;;;24.50;99.90;;;;;;5074913;28;20086;-75
2022/07/13 11:59:42;;;;;;;10.63;4.78;;;24.60;99.90;;;;;;5074518;28;20044;-76
2022/07/13 12:02:11;;;;;;;6.68;4.13;;;24.80;99.90;;;;;;5092126;28;20052;-75
2022/07/13 12:04:48;;;;;;;8.13;4.15;;;24.50;99.90;;;;;;5094638;28;20043;-76
2022/07/13 12:07:23;;;;;;;8.82;4.00;;;24.60;99.90;;;;;;5094489;28;20167;-76
2022/07/13 12:09:50;;;;;;;8.25;4.35;;;24.50;99.90;;;;;;5094673;28;20055;-76
2022/07/13 12:12:17;;;;;;;9.65;5.05;;;24.50;99.90;;;;;;5076563;28;20166;-74
2022/07/13 12:14:43;;;;;;;14.02;4.50;;;24.50;99.90;;;;;;5089080;28;20098;-78
2022/07/13 12:17:09;;;;;;;6.68;3.88;;;24.60;99.90;;;;;;5094757;28;20409;-76
2022/07/13 12:19:34;;;;;;;8.15;4.15;;;25.00;99.90;;;;;;5094588;28;20438;-78
2022/07/13 12:22:00;;;;;;;8.80;3.88;;;25.10;99.90;;;;;;5094151;28;20141;-77
2022/07/13 12:24:27;;;;;;;8.30;4.55;;;25.40;99.90;;;;;;5094008;28;20101;-75
2022/07/13 12:26:53;;;;;;;9.02;4.50;;;25.90;99.90;;;;;;5094319;28;20041;-75
2022/07/13 12:29:45;;;;;;;9.32;4.20;;;26.30;99.90;;;;;;5086818;28;20062;-73
2022/07/13 12:32:11;;;;;;;6.88;3.78;;;26.40;99.90;;;;;;5073234;28;20396;-75
2022/07/13 12:34:51;;;;;;;8.65;4.25;;;26.20;99.90;;;;;;5077841;28;20088;-74
2022/07/13 12:37:36;;;;;;;8.40;3.75;;;25.90;99.90;;;;;;5081930;28;20114;-73
2022/07/13 12:40:03;;;;;;;10.55;3.58;;;25.60;99.90;;;;;;5097522;28;20526;-74
2022/07/13 12:42:28;;;;;;;7.18;3.78;;;25.90;99.90;;;;;;5098073;28;20351;-73
2022/07/13 12:44:54;;;;;;;7.13;3.60;;;26.40;99.90;;;;;;5080405;28;20131;-75
2022/07/13 12:47:24;;;;;;;10.32;4.22;;;26.60;99.90;;;;;;5097884;28;20108;-74
2022/07/13 12:49:50;;;;;;;10.52;3.88;;;27.00;99.90;;;;;;5097727;28;20040;-74